Time;durP1;ratioP1;P1;durP2;ratioP2;P2;SDS_P1;SDS_P2;PMS_P1;PMS_P2;Temp;Humidity;BMP_temperature;BMP_pressure;BME280_temperature;BME280_humidity;BME280_pressure;Samples;Min_cycle;Max_cycle;Signal;HPM_P1;HPM_P2
2024/02/14 00:00:16;;;;;;;9.35;6.30;;;4.60;99.90;;;;;;5022239;28;20323;-91
2024/02/14 00:02:43;;;;;;;9.27;6.45;;;4.60;99.90;;;;;;5020082;28;20026;-90
2024/02/14 00:05:10;;;;;;;9.73;6.43;;;4.60;99.90;;;;;;5001391;28;20120;-90
2024/02/14 00:07:37;;;;;;;9.43;5.78;;;4.70;99.90;;;;;;5020303;28;20392;-92
2024/02/14 00:10:05;;;;;;;9.52;5.63;;;4.70;99.90;;;;;;5027974;28;20105;-92
2024/02/14 00:12:31;;;;;;;9.05;5.13;;;4.80;99.90;;;;;;5020338;28;20030;-91
2024/02/14 00:14:57;;;;;;;6.97;5.50;;;4.90;99.90;;;;;;5019286;28;20108;-92
2024/02/14 00:17:23;;;;;;;15.57;5.57;;;5.00;99.90;;;;;;5019605;28;20028;-91
2024/02/14 00:19:49;;;;;;;7.28;4.70;;;5.00;99.90;;;;;;5032062;28;20105;-92
2024/02/14 00:22:15;;;;;;;7.45;5.72;;;5.00;99.90;;;;;;5024157;28;20033;-90
2024/02/14 00:24:41;;;;;;;9.98;7.10;;;5.00;99.90;;;;;;5002711;28;20030;-91
2024/02/14 00:27:07;;;;;;;8.98;6.03;;;5.00;99.90;;;;;;5019507;28;20558;-91
2024/02/14 00:29:34;;;;;;;10.43;6.13;;;5.00;99.90;;;;;;5002306;28;20145;-91
2024/02/14 00:32:00;;;;;;;7.43;5.65;;;5.10;99.90;;;;;;5018620;28;20037;-92
2024/02/14 00:34:26;;;;;;;9.02;4.72;;;5.10;99.90;;;;;;5018919;28;20022;-91
2024/02/14 00:36:51;;;;;;;8.32;5.75;;;5.10;99.90;;;;;;5019943;28;20090;-90
2024/02/14 00:39:17;;;;;;;8.52;5.45;;;5.20;99.90;;;;;;5002712;28;20028;-92
2024/02/14 00:41:43;;;;;;;11.30;5.10;;;5.20;99.90;;;;;;5020096;28;20058;-89
2024/02/14 00:44:09;;;;;;;6.90;4.97;;;5.20;99.90;;;;;;5002562;28;20026;-93
2024/02/14 00:46:37;;;;;;;7.80;5.05;;;5.20;99.90;;;;;;5020067;28;20018;-91
2024/02/14 00:49:03;;;;;;;8.02;5.85;;;5.20;99.90;;;;;;5019618;28;20034;-92
2024/02/14 00:51:29;;;;;;;7.72;5.53;;;5.20;99.90;;;;;;5018655;28;20022;-91
2024/02/14 00:53:55;;;;;;;9.55;6.70;;;5.30;99.90;;;;;;5019545;28;20033;-91
2024/02/14 00:56:20;;;;;;;7.80;5.65;;;5.30;99.90;;;;;;5019837;28;20126;-93
2024/02/14 00:58:49;;;;;;;8.73;5.90;;;5.30;99.90;;;;;;5019582;28;20026;-91
2024/02/14 01:01:21;;;;;;;10.85;5.57;;;5.30;99.90;;;;;;5003487;28;20102;-92
2024/02/14 01:03:46;;;;;;;8.90;5.60;;;5.30;99.90;;;;;;5021835;28;20034;-91
2024/02/14 01:06:13;;;;;;;11.00;6.32;;;5.30;99.90;;;;;;5023086;28;20399;-88
2024/02/14 01:08:40;;;;;;;9.93;5.82;;;5.40;99.90;;;;;;5002959;28;20377;-91
2024/02/14 01:11:07;;;;;;;8.70;6.75;;;5.40;99.90;;;;;;5019315;28;20029;-90
2024/02/14 01:13:32;;;;;;;8.48;5.45;;;5.40;99.90;;;;;;5002450;28;20083;-90
2024/02/14 01:15:58;;;;;;;11.00;6.10;;;5.40;99.90;;;;;;5019882;28;20101;-89
2024/02/14 01:18:24;;;;;;;8.20;5.63;;;5.40;99.90;;;;;;5020127;28;20033;-92
2024/02/14 01:20:49;;;;;;;7.10;5.45;;;5.40;99.90;;;;;;5024859;28;20022;-92
2024/02/14 01:23:15;;;;;;;10.05;6.00;;;5.40;99.90;;;;;;5019446;28;20044;-92
2024/02/14 01:25:42;;;;;;;8.38;5.72;;;5.30;99.90;;;;;;5019804;28;20392;-91
2024/02/14 01:28:08;;;;;;;15.95;5.45;;;5.30;99.90;;;;;;5018431;28;20077;-92
2024/02/14 01:30:35;;;;;;;9.93;5.13;;;5.30;99.90;;;;;;5020114;28;20497;-91
2024/02/14 01:33:03;;;;;;;8.95;6.20;;;5.20;99.90;;;;;;5018823;28;20021;-90
2024/02/14 01:35:30;;;;;;;7.65;6.20;;;5.20;99.90;;;;;;5018377;28;20036;-91
2024/02/14 01:37:55;;;;;;;8.02;6.15;;;5.20;99.90;;;;;;5020099;28;20491;-91
2024/02/14 01:40:21;;;;;;;12.32;5.97;;;5.10;99.90;;;;;;5018214;28;20033;-90
2024/02/14 01:42:47;;;;;;;9.65;4.80;;;5.10;99.90;;;;;;5018534;28;20045;-90
2024/02/14 01:45:13;;;;;;;9.90;6.05;;;5.10;99.90;;;;;;5019031;28;20022;-91
2024/02/14 01:47:41;;;;;;;8.02;4.85;;;5.10;99.90;;;;;;5018088;28;20042;-91
2024/02/14 01:50:09;;;;;;;7.80;5.65;;;5.10;99.90;;;;;;5020396;28;20032;-92
2024/02/14 01:52:35;;;;;;;9.75;5.40;;;5.10;99.90;;;;;;5017945;28;20026;-91
2024/02/14 01:55:04;;;;;;;9.05;5.85;;;5.00;99.90;;;;;;5018905;28;20033;-89
2024/02/14 01:57:30;;;;;;;8.77;4.82;;;4.90;99.90;;;;;;5020007;28;20057;-91
2024/02/14 01:59:58;;;;;;;6.95;4.47;;;4.80;99.90;;;;;;5018677;28;20018;-90
2024/02/14 02:02:26;;;;;;;9.95;5.90;;;4.80;99.90;;;;;;5019072;28;20081;-88
2024/02/14 02:04:52;;;;;;;8.75;5.30;;;4.80;99.90;;;;;;5019824;28;20092;-90
2024/02/14 02:07:20;;;;;;;8.10;5.38;;;4.90;99.90;;;;;;5018057;28;20025;-91
2024/02/14 02:09:46;;;;;;;7.57;5.65;;;4.80;99.90;;;;;;5001641;28;20026;-90
2024/02/14 02:12:11;;;;;;;8.55;5.07;;;4.80;99.90;;;;;;5000733;28;20022;-91
2024/02/14 02:14:37;;;;;;;7.20;5.35;;;4.80;99.90;;;;;;5018365;28;20033;-93
2024/02/14 02:17:07;;;;;;;6.88;6.13;;;4.80;99.90;;;;;;5002374;28;20041;-92
2024/02/14 02:19:33;;;;;;;9.15;4.82;;;4.70;99.90;;;;;;5002503;28;20025;-90
2024/02/14 02:22:00;;;;;;;8.43;5.00;;;4.70;99.90;;;;;;5019745;28;20067;-93
2024/02/14 02:24:26;;;;;;;7.00;5.43;;;4.60;99.90;;;;;;5019011;28;20045;-91
2024/02/14 02:26:51;;;;;;;7.50;4.82;;;4.50;99.90;;;;;;5018216;28;20389;-91
2024/02/14 02:29:19;;;;;;;11.55;5.57;;;4.40;99.90;;;;;;5018837;28;20037;-91
2024/02/14 02:31:46;;;;;;;6.00;5.43;;;4.40;99.90;;;;;;5017705;28;20048;-91
2024/02/14 02:34:12;;;;;;;7.85;5.13;;;4.40;99.90;;;;;;5018352;28;20018;-91
2024/02/14 02:36:39;;;;;;;8.55;6.53;;;4.40;99.90;;;;;;5000628;28;20030;-93
2024/02/14 02:39:04;;;;;;;10.25;6.25;;;4.40;99.90;;;;;;5018303;28;20106;-92
2024/02/14 02:41:33;;;;;;;8.25;5.82;;;4.30;99.90;;;;;;5017947;28;20054;-92
2024/02/14 02:44:01;;;;;;;7.45;4.75;;;4.30;99.90;;;;;;5018353;28;20106;-89
2024/02/14 02:46:27;;;;;;;6.45;4.95;;;4.30;99.90;;;;;;5018122;28;20037;-89
2024/02/14 02:48:54;;;;;;;10.93;4.80;;;4.30;99.90;;;;;;5000534;28;20090;-91
2024/02/14 02:51:20;;;;;;;6.45;4.88;;;4.30;99.90;;;;;;5017226;28;20022;-92
2024/02/14 02:53:46;;;;;;;9.25;5.82;;;4.40;99.90;;;;;;5018860;28;20088;-90
2024/02/14 02:56:14;;;;;;;7.78;5.50;;;4.40;99.90;;;;;;5016418;28;20042;-91
2024/02/14 02:58:40;;;;;;;6.97;6.32;;;4.40;99.90;;;;;;5017044;28;20080;-90
2024/02/14 03:01:10;;;;;;;6.65;5.05;;;4.50;99.90;;;;;;5018656;28;20022;-89
2024/02/14 03:03:36;;;;;;;6.68;5.05;;;4.60;99.90;;;;;;5017980;28;20029;-90
2024/02/14 03:06:03;;;;;;;7.43;5.13;;;4.70;99.90;;;;;;5017855;28;20045;-91
2024/02/14 03:08:30;;;;;;;6.95;4.63;;;4.70;99.90;;;;;;5017625;28;20086;-92
2024/02/14 03:10:59;;;;;;;8.55;4.57;;;4.70;99.90;;;;;;5017120;28;20545;-91
2024/02/14 03:13:26;;;;;;;5.57;4.43;;;4.70;99.90;;;;;;5018012;28;20435;-90
2024/02/14 03:15:52;;;;;;;8.60;4.78;;;4.70;99.90;;;;;;5018283;28;20022;-90
2024/02/14 03:18:18;;;;;;;9.75;5.78;;;4.80;99.90;;;;;;5000676;28;20049;-91
2024/02/14 03:20:43;;;;;;;7.80;5.00;;;4.80;99.90;;;;;;5016707;28;20026;-89
2024/02/14 03:23:09;;;;;;;10.32;4.05;;;4.80;99.90;;;;;;5005356;28;20030;-93
2024/02/14 03:25:36;;;;;;;5.75;4.63;;;4.90;99.90;;;;;;5017299;28;20034;-87
2024/02/14 03:28:05;;;;;;;5.10;3.83;;;4.90;99.90;;;;;;5017715;28;20030;-91
2024/02/14 03:30:30;;;;;;;8.43;5.47;;;5.00;99.90;;;;;;5017787;28;20508;-91
2024/02/14 03:32:56;;;;;;;6.03;4.50;;;5.00;99.90;;;;;;5017849;28;20030;-91
2024/02/14 03:35:22;;;;;;;5.95;3.97;;;5.00;99.90;;;;;;5017211;28;20030;-92
2024/02/14 03:37:49;;;;;;;7.32;4.80;;;5.00;99.90;;;;;;5018317;28;20117;-90
2024/02/14 03:40:15;;;;;;;10.98;4.57;;;5.00;99.90;;;;;;5017583;28;20018;-92
2024/02/14 03:42:40;;;;;;;6.82;4.32;;;5.10;99.90;;;;;;5017276;28;20026;-91
2024/02/14 03:45:09;;;;;;;9.90;4.28;;;5.20;99.90;;;;;;5017990;28;20100;-91
2024/02/14 03:47:39;;;;;;;7.95;4.57;;;5.20;99.90;;;;;;5016241;28;20018;-92
2024/02/14 03:50:05;;;;;;;4.82;3.22;;;5.30;99.90;;;;;;5017362;28;20065;-92
2024/02/14 03:52:34;;;;;;;6.32;4.03;;;5.40;99.90;;;;;;5017917;28;20037;-91
2024/02/14 03:55:00;;;;;;;7.65;3.65;;;5.40;99.90;;;;;;5019073;28;20026;-90
2024/02/14 03:57:28;;;;;;;6.72;4.20;;;5.50;99.90;;;;;;5017500;28;20025;-91
2024/02/14 03:59:59;;;;;;;5.20;3.25;;;5.50;99.90;;;;;;5018708;28;20057;-91
2024/02/14 04:02:27;;;;;;;5.85;2.55;;;5.60;99.90;;;;;;5020025;28;20642;-90
2024/02/14 04:04:53;;;;;;;7.70;3.25;;;5.50;99.90;;;;;;5017631;28;20026;-91
2024/02/14 04:07:19;;;;;;;5.68;2.60;;;5.60;99.90;;;;;;5017848;28;20033;-91
2024/02/14 04:09:44;;;;;;;5.65;3.85;;;5.60;99.90;;;;;;4999339;28;20551;-91
2024/02/14 04:12:10;;;;;;;4.30;3.67;;;5.70;99.90;;;;;;5017971;28;20388;-91
2024/02/14 04:14:37;;;;;;;4.95;2.13;;;5.70;99.90;;;;;;4999741;28;20069;-92
2024/02/14 04:17:04;;;;;;;2.72;2.08;;;5.70;99.90;;;;;;5018259;28;20045;-91
2024/02/14 04:19:29;;;;;;;5.05;3.13;;;5.80;99.90;;;;;;5017763;28;20022;-91
2024/02/14 04:21:55;;;;;;;3.50;2.50;;;5.80;99.90;;;;;;5016142;28;20045;-89
2024/02/14 04:24:21;;;;;;;3.92;2.60;;;5.80;99.90;;;;;;5020524;28;20665;-91
2024/02/14 04:26:49;;;;;;;3.85;2.20;;;5.90;99.80;;;;;;5020119;28;20028;-90
2024/02/14 04:29:14;;;;;;;3.90;3.50;;;6.10;98.80;;;;;;5021528;28;20026;-90
2024/02/14 04:31:40;;;;;;;4.93;2.92;;;6.20;98.00;;;;;;5021861;28;20548;-92
2024/02/14 04:34:08;;;;;;;4.10;2.45;;;6.40;97.00;;;;;;5021154;28;20113;-90
2024/02/14 04:36:35;;;;;;;10.90;2.17;;;6.50;96.10;;;;;;5020213;28;20026;-91
2024/02/14 04:39:01;;;;;;;4.28;2.72;;;6.60;95.40;;;;;;5020461;28;20388;-91
2024/02/14 04:41:26;;;;;;;3.20;2.45;;;6.80;93.50;;;;;;5019234;28;20032;-92
2024/02/14 04:43:52;;;;;;;3.15;2.10;;;7.00;92.90;;;;;;5020213;28;20061;-91
2024/02/14 04:46:18;;;;;;;6.45;2.13;;;7.10;92.90;;;;;;5002776;28;20030;-90
2024/02/14 04:48:44;;;;;;;3.10;1.73;;;7.20;92.20;;;;;;5020472;28;20045;-91
2024/02/14 04:51:09;;;;;;;2.85;1.88;;;7.20;91.30;;;;;;5035006;28;20029;-90
2024/02/14 04:53:35;;;;;;;4.38;1.77;;;7.40;90.90;;;;;;5028123;28;20025;-91
2024/02/14 04:56:01;;;;;;;4.18;1.88;;;7.60;89.10;;;;;;5002697;28;20030;-90
2024/02/14 04:58:26;;;;;;;3.28;1.77;;;7.70;88.70;;;;;;5020169;28;20026;-92
2024/02/14 05:00:53;;;;;;;5.03;1.75;;;7.70;87.30;;;;;;5019300;28;20264;-89
2024/02/14 05:03:19;;;;;;;2.78;1.45;;;7.80;85.90;;;;;;5020642;28;20022;-91
2024/02/14 05:05:45;;;;;;;5.20;2.20;;;7.90;86.00;;;;;;5019221;28;20076;-91
2024/02/14 05:08:10;;;;;;;6.40;2.40;;;7.90;85.70;;;;;;5020136;28;20130;-91
2024/02/14 05:10:36;;;;;;;3.42;1.85;;;8.00;85.70;;;;;;5026247;28;20045;-91
2024/02/14 05:13:02;;;;;;;3.10;1.95;;;7.90;87.00;;;;;;5020473;28;20033;-91
2024/02/14 05:15:28;;;;;;;5.68;2.03;;;7.90;86.90;;;;;;5020451;28;20437;-93
2024/02/14 05:17:53;;;;;;;3.92;2.05;;;7.80;86.50;;;;;;5020301;28;20030;-90
2024/02/14 05:20:19;;;;;;;3.78;1.77;;;7.90;86.70;;;;;;5020609;28;20025;-90
2024/02/14 05:22:45;;;;;;;4.47;2.78;;;7.90;86.90;;;;;;5020448;28;20033;-91
2024/02/14 05:25:11;;;;;;;5.30;2.45;;;7.80;86.60;;;;;;5020426;28;20042;-90
2024/02/14 05:27:37;;;;;;;5.47;2.65;;;7.80;86.80;;;;;;5020367;28;20041;-93
2024/02/14 05:30:06;;;;;;;4.45;1.98;;;7.80;86.30;;;;;;5002368;28;20038;-92
2024/02/14 05:32:33;;;;;;;2.85;2.53;;;7.90;86.30;;;;;;5011652;28;20030;-94
2024/02/14 05:35:05;;;;;;;5.95;3.03;;;7.90;86.70;;;;;;5032238;28;20049;-92
2024/02/14 05:37:31;;;;;;;5.70;2.45;;;7.90;86.60;;;;;;5017658;28;20041;-91
2024/02/14 05:39:57;;;;;;;2.78;2.42;;;7.90;86.40;;;;;;5013488;28;20049;-92
2024/02/14 05:42:23;;;;;;;4.60;1.85;;;7.90;86.10;;;;;;5018676;28;20090;-90
2024/02/14 05:44:51;;;;;;;3.58;1.85;;;8.00;86.50;;;;;;5019119;28;20025;-91
2024/02/14 05:47:18;;;;;;;3.15;2.22;;;7.90;85.60;;;;;;5017882;28;20033;-92
2024/02/14 05:49:44;;;;;;;4.22;2.83;;;8.00;86.20;;;;;;5028075;28;20225;-92
2024/02/14 05:52:09;;;;;;;3.63;2.08;;;8.00;86.70;;;;;;5020925;28;20037;-92
2024/02/14 05:54:35;;;;;;;3.13;1.45;;;8.00;85.30;;;;;;5018910;28;20018;-92
2024/02/14 05:57:04;;;;;;;3.45;2.35;;;8.10;85.90;;;;;;5019319;28;20025;-92
2024/02/14 05:59:30;;;;;;;4.10;1.60;;;8.10;85.90;;;;;;5021057;28;20034;-91
2024/02/14 06:01:56;;;;;;;4.10;2.35;;;8.10;85.80;;;;;;5021595;28;20040;-91
2024/02/14 06:04:21;;;;;;;4.30;1.70;;;8.10;84.80;;;;;;5021849;28;20535;-92
2024/02/14 06:06:47;;;;;;;3.38;2.42;;;8.10;85.00;;;;;;5018178;28;20049;-90
2024/02/14 06:09:13;;;;;;;3.78;1.45;;;8.20;84.00;;;;;;5019299;28;20026;-92
2024/02/14 06:11:39;;;;;;;5.00;1.70;;;8.20;84.20;;;;;;5019559;28;20023;-92
2024/02/14 06:14:06;;;;;;;3.42;2.50;;;8.20;84.10;;;;;;5002542;28;20018;-91
2024/02/14 06:16:33;;;;;;;5.18;2.53;;;8.30;83.50;;;;;;5019281;28;20238;-90
2024/02/14 06:18:58;;;;;;;4.80;2.60;;;8.30;84.50;;;;;;5014494;28;20416;-90
2024/02/14 06:21:25;;;;;;;6.35;2.30;;;8.30;84.60;;;;;;5022602;28;20026;-90
2024/02/14 06:23:51;;;;;;;3.50;2.28;;;8.30;84.30;;;;;;5017584;28;20018;-92
2024/02/14 06:26:17;;;;;;;3.75;2.00;;;8.30;83.90;;;;;;5016439;28;20032;-90
2024/02/14 06:28:44;;;;;;;3.22;2.25;;;8.30;84.60;;;;;;5019984;28;20030;-92
2024/02/14 06:31:09;;;;;;;2.78;1.92;;;8.40;84.20;;;;;;5024370;28;20030;-91
2024/02/14 06:33:35;;;;;;;3.85;2.28;;;8.30;85.00;;;;;;5019277;28;20388;-93
2024/02/14 06:36:01;;;;;;;9.52;2.63;;;8.30;85.60;;;;;;5006062;28;20029;-91
2024/02/14 06:38:27;;;;;;;3.35;2.75;;;8.30;86.20;;;;;;5017952;28;20029;-92
2024/02/14 06:40:52;;;;;;;3.83;1.95;;;8.30;85.80;;;;;;4999192;28;20022;-91
2024/02/14 06:43:19;;;;;;;4.18;2.17;;;8.30;87.20;;;;;;5021694;28;20028;-93
2024/02/14 06:45:45;;;;;;;3.72;2.42;;;8.20;89.70;;;;;;5013713;28;20022;-91
2024/02/14 06:48:11;;;;;;;5.43;2.88;;;8.10;90.30;;;;;;4986074;28;20429;-92
2024/02/14 06:50:36;;;;;;;7.07;2.40;;;8.00;91.20;;;;;;5007784;28;20045;-91
2024/02/14 06:53:02;;;;;;;3.53;1.88;;;8.00;91.10;;;;;;5011662;28;20049;-91
2024/02/14 06:55:30;;;;;;;6.15;2.72;;;8.00;91.20;;;;;;5010042;28;20018;-91
2024/02/14 06:57:56;;;;;;;5.05;3.10;;;8.00;90.90;;;;;;5007888;28;20022;-91
2024/02/14 07:00:22;;;;;;;11.75;2.05;;;8.00;90.50;;;;;;4994179;28;20094;-91
2024/02/14 07:02:48;;;;;;;4.13;2.58;;;8.00;90.50;;;;;;4998489;28;20552;-91
2024/02/14 07:05:14;;;;;;;7.40;3.28;;;8.00;90.60;;;;;;5002268;28;20409;-93
2024/02/14 07:07:41;;;;;;;4.10;2.45;;;8.00;90.50;;;;;;5002439;28;21183;-91
2024/02/14 07:10:07;;;;;;;9.80;3.00;;;8.00;90.60;;;;;;5009280;28;20025;-92
2024/02/14 07:12:33;;;;;;;4.75;2.20;;;8.00;90.80;;;;;;5002558;28;20037;-90
2024/02/14 07:14:59;;;;;;;4.05;3.05;;;8.00;90.90;;;;;;5003361;28;20033;-93
2024/02/14 07:17:24;;;;;;;6.15;3.10;;;8.00;91.50;;;;;;4999633;28;20160;-91
2024/02/14 07:19:50;;;;;;;3.58;2.13;;;8.00;91.20;;;;;;4993039;28;20030;-90
2024/02/14 07:22:18;;;;;;;5.80;2.72;;;8.10;90.50;;;;;;5014314;28;20021;-92
2024/02/14 07:24:45;;;;;;;9.00;3.03;;;8.00;91.10;;;;;;4996015;28;20102;-91
2024/02/14 07:27:12;;;;;;;7.00;3.00;;;8.00;90.30;;;;;;5016540;28;20029;-91
2024/02/14 07:29:38;;;;;;;6.45;1.98;;;8.10;90.80;;;;;;4999031;28;20153;-91
2024/02/14 07:32:04;;;;;;;4.90;1.92;;;8.00;91.60;;;;;;5015647;28;20496;-91
2024/02/14 07:34:29;;;;;;;5.28;2.60;;;8.00;91.30;;;;;;5020186;28;20376;-91
2024/02/14 07:36:55;;;;;;;3.90;2.78;;;8.10;89.40;;;;;;4999262;28;20033;-93
2024/02/14 07:39:20;;;;;;;4.25;1.73;;;8.20;90.20;;;;;;5016426;28;20073;-92
2024/02/14 07:41:46;;;;;;;3.55;2.85;;;8.20;90.20;;;;;;5021774;28;20075;-89
2024/02/14 07:44:13;;;;;;;3.90;2.22;;;8.20;89.60;;;;;;5016840;28;20037;-91
2024/02/14 07:46:38;;;;;;;3.25;2.25;;;8.20;91.10;;;;;;5016392;28;20053;-92
2024/02/14 07:49:04;;;;;;;5.22;3.10;;;8.30;90.50;;;;;;5021925;28;20099;-90
2024/02/14 07:51:36;;;;;;;4.15;2.65;;;8.30;90.40;;;;;;5017433;28;20025;-91
2024/02/14 07:54:05;;;;;;;4.18;2.40;;;8.30;90.40;;;;;;5016071;28;20032;-89
2024/02/14 07:56:31;;;;;;;6.47;2.85;;;8.30;89.60;;;;;;4998996;28;20037;-91
2024/02/14 07:58:57;;;;;;;5.68;2.42;;;8.30;90.50;;;;;;4999388;28;20041;-92
2024/02/14 08:01:23;;;;;;;5.60;2.25;;;8.30;90.50;;;;;;5017382;28;20065;-90
2024/02/14 08:03:49;;;;;;;4.30;2.58;;;8.40;90.20;;;;;;5020307;28;20029;-91
2024/02/14 08:06:14;;;;;;;4.47;2.65;;;8.50;90.10;;;;;;5004736;28;20026;-91
2024/02/14 08:08:40;;;;;;;4.78;2.45;;;8.50;89.20;;;;;;5020132;28;20062;-92
2024/02/14 08:11:06;;;;;;;5.03;2.63;;;8.60;89.00;;;;;;5019148;28;20081;-90
2024/02/14 08:13:32;;;;;;;3.65;1.58;;;8.60;88.90;;;;;;5021425;28;20033;-88
2024/02/14 08:15:58;;;;;;;2.85;1.83;;;8.70;87.80;;;;;;5023812;28;20041;-90
2024/02/14 08:18:24;;;;;;;5.53;2.42;;;8.80;87.10;;;;;;5008952;28;20021;-91
2024/02/14 08:20:50;;;;;;;5.00;2.40;;;8.80;86.10;;;;;;5008009;28;20397;-92
2024/02/14 08:23:16;;;;;;;5.90;2.30;;;8.80;85.60;;;;;;5022725;28;20025;-91
2024/02/14 08:25:42;;;;;;;4.55;1.95;;;8.90;86.60;;;;;;5020191;28;20026;-91
2024/02/14 08:28:09;;;;;;;3.55;2.40;;;8.90;86.00;;;;;;5019573;28;20029;-91
2024/02/14 08:30:34;;;;;;;5.28;2.53;;;8.90;85.80;;;;;;5001129;28;20515;-91
2024/02/14 08:33:00;;;;;;;4.15;2.58;;;8.90;85.70;;;;;;5019342;28;20033;-91
2024/02/14 08:35:26;;;;;;;6.72;2.80;;;8.90;85.50;;;;;;5001291;28;20401;-92
2024/02/14 08:37:51;;;;;;;7.18;3.10;;;9.00;86.20;;;;;;5020596;28;20024;-91
2024/02/14 08:40:20;;;;;;;10.07;2.47;;;9.10;85.00;;;;;;5018991;28;20546;-93
2024/02/14 08:42:46;;;;;;;5.63;2.63;;;9.10;83.00;;;;;;5001846;28;20021;-89
2024/02/14 08:45:12;;;;;;;5.57;4.43;;;9.20;84.70;;;;;;5018604;28;20024;-91
2024/02/14 08:47:37;;;;;;;6.88;2.95;;;9.30;84.00;;;;;;5019283;28;20034;-91
2024/02/14 08:50:21;;;;;;;5.15;3.60;;;9.30;82.70;;;;;;5019443;28;20034;-91
2024/02/14 08:52:47;;;;;;;4.10;2.38;;;9.40;83.10;;;;;;5002287;28;20080;-92
2024/02/14 08:55:17;;;;;;;3.75;2.72;;;9.40;83.10;;;;;;5020767;28;20026;-91
2024/02/14 08:57:47;;;;;;;11.63;2.92;;;9.50;83.60;;;;;;5020565;28;20674;-91
2024/02/14 09:00:18;;;;;;;5.28;1.60;;;9.50;82.60;;;;;;5018924;28;20080;-91
2024/02/14 09:02:49;;;;;;;7.15;2.00;;;9.60;83.30;;;;;;5018241;28;20052;-91
2024/02/14 09:05:18;;;;;;;3.85;2.05;;;9.50;82.10;;;;;;5004412;28;20037;-91
2024/02/14 09:07:44;;;;;;;8.48;2.92;;;9.60;82.80;;;;;;5022220;28;20654;-91
2024/02/14 09:10:12;;;;;;;3.55;1.92;;;9.60;81.40;;;;;;5017615;28;20032;-91
2024/02/14 09:12:38;;;;;;;2.53;1.65;;;9.60;80.90;;;;;;5016653;28;20062;-91
2024/02/14 09:17:40;;;;;;;3.88;1.77;;;9.70;80.90;;;;;;6133268;22;20020;-90
2024/02/14 09:20:09;;;;;;;6.57;2.10;;;9.70;81.00;;;;;;5036277;28;20107;-90
2024/02/14 09:22:37;;;;;;;3.20;1.85;;;9.70;80.60;;;;;;5033341;28;20091;-91
2024/02/14 09:25:04;;;;;;;3.50;1.67;;;9.80;81.30;;;;;;5037484;28;20144;-91
2024/02/14 09:27:30;;;;;;;4.22;1.75;;;9.80;80.60;;;;;;5018783;28;20088;-92
2024/02/14 09:29:56;;;;;;;4.10;1.73;;;9.80;81.30;;;;;;5019772;28;20045;-90
2024/02/14 09:32:22;;;;;;;10.00;2.55;;;9.80;85.20;;;;;;5001728;28;20047;-91
2024/02/14 09:34:47;;;;;;;4.35;1.98;;;9.70;86.80;;;;;;5002995;28;20039;-92
2024/02/14 09:37:13;;;;;;;4.85;2.28;;;9.70;87.90;;;;;;5017159;28;20025;-91
2024/02/14 09:39:39;;;;;;;6.43;2.63;;;9.70;88.00;;;;;;5007252;28;20084;-90
2024/02/14 09:42:11;;;;;;;9.93;4.57;;;9.80;85.90;;;;;;5023854;28;20030;-91
2024/02/14 09:47:32;;;;;;;4.95;3.55;;;10.00;84.80;;;;;;5069672;22;20056;-88
2024/02/14 09:49:58;;;;;;;;;;;10.10;84.10;;;;;;5039229;28;20117;-90
2024/02/14 09:52:25;;;;;;;7.25;3.22;;;10.10;83.60;;;;;;5026487;28;20009;-92
2024/02/14 09:54:52;;;;;;;12.02;5.00;;;10.20;82.20;;;;;;5037881;28;20488;-91
2024/02/14 09:57:18;;;;;;;6.28;2.55;;;10.20;83.00;;;;;;5002070;28;20029;-94
2024/02/14 09:59:45;;;;;;;7.55;3.25;;;10.10;81.10;;;;;;5018861;28;20454;-92
2024/02/14 10:02:11;;;;;;;6.68;2.28;;;10.20;82.60;;;;;;5015558;28;20022;-92
2024/02/14 10:04:38;;;;;;;4.90;1.88;;;10.20;82.00;;;;;;5025950;28;20045;-92
2024/02/14 10:07:06;;;;;;;3.80;2.63;;;10.30;80.80;;;;;;5020288;28;20116;-92
2024/02/14 10:09:41;;;;;;;4.13;2.60;;;10.30;80.20;;;;;;4998525;28;20177;-91
2024/02/14 10:12:11;;;;;;;5.28;2.22;;;10.40;81.50;;;;;;5018382;28;20022;-91
2024/02/14 10:14:37;;;;;;;3.78;2.10;;;10.40;80.10;;;;;;5019357;28;20057;-90
2024/02/14 10:17:04;;;;;;;6.13;2.42;;;10.40;80.60;;;;;;5019502;28;20026;-91
2024/02/14 10:19:30;;;;;;;6.43;2.35;;;10.30;81.10;;;;;;5016520;28;20014;-91
2024/02/14 10:22:00;;;;;;;4.13;1.73;;;10.40;80.60;;;;;;5016694;28;20022;-92
2024/02/14 10:24:30;;;;;;;5.25;1.77;;;10.40;80.50;;;;;;4999356;28;20026;-92
2024/02/14 10:26:59;;;;;;;5.35;1.83;;;10.50;81.30;;;;;;5020467;28;20010;-90
2024/02/14 10:29:25;;;;;;;4.93;1.77;;;10.60;81.30;;;;;;5019470;28;20067;-92
2024/02/14 10:31:52;;;;;;;5.88;3.03;;;10.80;79.70;;;;;;5016310;28;20026;-91
2024/02/14 10:34:25;;;;;;;3.28;1.48;;;10.80;80.20;;;;;;5011829;28;20033;-91
2024/02/14 10:37:13;;;;;;;4.63;2.15;;;10.80;80.60;;;;;;5015628;28;20014;-92
2024/02/14 10:39:52;;;;;;;4.00;1.77;;;10.80;80.90;;;;;;4999624;28;20056;-91
2024/02/14 10:42:19;;;;;;;3.83;1.75;;;10.80;81.00;;;;;;5004213;28;20428;-92
2024/02/14 10:44:47;;;;;;;5.25;2.35;;;10.80;80.80;;;;;;5015910;28;20608;-93
2024/02/14 10:47:16;;;;;;;4.90;2.15;;;10.80;81.70;;;;;;5003410;28;20064;-92
2024/02/14 10:49:45;;;;;;;4.05;1.77;;;10.80;80.90;;;;;;4999439;28;20033;-92
2024/02/14 10:52:12;;;;;;;5.00;1.65;;;10.80;81.10;;;;;;5009572;28;20025;-93
2024/02/14 10:54:39;;;;;;;6.47;1.60;;;10.80;81.40;;;;;;5027078;28;20490;-92
2024/02/14 10:57:12;;;;;;;4.53;2.20;;;11.00;81.80;;;;;;4992864;28;20030;-91
2024/02/14 10:59:44;;;;;;;3.40;1.60;;;10.90;82.40;;;;;;4999645;28;20037;-91
2024/02/14 11:02:11;;;;;;;3.53;2.40;;;10.90;82.40;;;;;;4994684;28;20025;-92
2024/02/14 11:04:37;;;;;;;5.38;2.13;;;10.90;81.90;;;;;;4997421;28;20085;-92
2024/02/14 11:07:09;;;;;;;5.22;2.78;;;11.00;83.00;;;;;;4995253;28;20065;-92
2024/02/14 11:09:40;;;;;;;6.32;3.70;;;11.20;82.90;;;;;;4998577;28;20114;-92
2024/02/14 11:12:10;;;;;;;4.82;2.83;;;11.30;84.40;;;;;;5018998;28;20049;-93
2024/02/14 11:14:39;;;;;;;4.70;1.90;;;11.20;82.00;;;;;;5018278;28;20025;-92
2024/02/14 11:17:09;;;;;;;7.75;1.65;;;11.40;82.80;;;;;;5018550;28;20045;-93
2024/02/14 11:19:37;;;;;;;4.57;2.83;;;11.60;81.90;;;;;;5015314;28;20027;-90
2024/02/14 11:22:14;;;;;;;3.10;1.48;;;11.60;82.00;;;;;;4989270;28;20049;-91
2024/02/14 11:24:41;;;;;;;4.18;1.50;;;11.70;81.20;;;;;;5015123;28;20026;-93
2024/02/14 11:27:14;;;;;;;4.82;1.90;;;12.00;79.70;;;;;;5001158;28;20091;-92
2024/02/14 11:29:43;;;;;;;4.15;2.17;;;12.10;80.30;;;;;;5026282;28;20026;-92
2024/02/14 11:32:11;;;;;;;4.38;1.95;;;12.40;78.10;;;;;;5000000;28;20021;-93
2024/02/14 11:34:37;;;;;;;4.47;1.67;;;12.90;76.10;;;;;;5022001;28;20026;-93
2024/02/14 11:37:05;;;;;;;2.50;1.30;;;13.30;75.90;;;;;;5004733;28;20026;-92
2024/02/14 11:39:33;;;;;;;2.95;1.95;;;13.30;73.90;;;;;;5013604;28;20101;-92
2024/02/14 11:42:00;;;;;;;2.90;1.67;;;13.10;76.20;;;;;;5006340;28;20032;-92
2024/02/14 11:44:26;;;;;;;3.38;1.83;;;13.00;76.70;;;;;;4988353;28;20058;-94
2024/02/14 11:46:52;;;;;;;3.42;2.40;;;12.70;79.00;;;;;;5004239;28;20049;-91
2024/02/14 11:49:18;;;;;;;8.88;8.02;;;12.60;79.90;;;;;;5021221;28;20022;-92
2024/02/14 11:51:44;;;;;;;8.80;3.22;;;12.70;79.60;;;;;;5003735;28;20022;-94
2024/02/14 11:54:17;;;;;;;5.38;1.55;;;12.60;80.70;;;;;;5000843;28;20041;-92
2024/02/14 11:56:46;;;;;;;6.30;4.40;;;12.70;80.90;;;;;;4976682;28;20022;-93
2024/02/14 11:59:12;;;;;;;62.50;55.58;;;12.80;81.20;;;;;;4983790;28;20046;-91
2024/02/14 12:01:39;;;;;;;26.05;20.20;;;13.10;80.80;;;;;;5004916;28;20235;-93
2024/02/14 12:04:09;;;;;;;3.28;1.63;;;13.20;79.90;;;;;;5024387;28;20128;-93
2024/02/14 12:06:35;;;;;;;3.90;2.17;;;13.10;80.30;;;;;;4997241;28;20013;-92
2024/02/14 12:09:05;;;;;;;6.07;2.22;;;12.90;81.00;;;;;;4998615;28;20038;-93
2024/02/14 12:11:37;;;;;;;9.60;4.05;;;13.00;80.90;;;;;;4978566;28;20021;-92
2024/02/14 12:14:05;;;;;;;12.82;11.48;;;13.00;81.00;;;;;;5016799;28;20022;-93
2024/02/14 12:16:43;;;;;;;3.42;1.48;;;13.20;81.70;;;;;;5006958;28;20030;-93
2024/02/14 12:19:09;;;;;;;4.93;3.97;;;13.20;80.80;;;;;;5027462;28;20037;-92
2024/02/14 12:21:39;;;;;;;6.82;5.60;;;13.10;82.90;;;;;;4985127;28;20065;-90
2024/02/14 12:24:13;;;;;;;1.80;1.30;;;13.10;82.30;;;;;;5009167;28;20054;-93
2024/02/14 12:26:41;;;;;;;2.22;0.73;;;12.90;84.00;;;;;;5002068;28;20627;-89
2024/02/14 12:29:08;;;;;;;5.75;2.20;;;12.70;84.40;;;;;;5000934;28;20334;-91
2024/02/14 12:31:35;;;;;;;3.95;1.15;;;12.70;85.70;;;;;;4997973;28;20055;-92
2024/02/14 12:34:02;;;;;;;2.40;1.23;;;12.70;85.30;;;;;;5021848;28;20026;-90
2024/02/14 12:36:34;;;;;;;3.67;1.50;;;12.60;85.50;;;;;;4997930;28;20026;-89
2024/02/14 12:39:06;;;;;;;2.35;0.90;;;12.60;85.40;;;;;;4974482;28;20133;-92
2024/02/14 12:41:35;;;;;;;3.40;1.20;;;12.70;85.20;;;;;;4995469;28;20531;-93
2024/02/14 12:44:01;;;;;;;4.35;1.90;;;12.70;85.60;;;;;;4955008;28;20488;-91
2024/02/14 12:46:38;;;;;;;5.35;1.90;;;12.80;85.80;;;;;;4984366;28;20416;-91
2024/02/14 12:49:03;;;;;;;3.95;1.70;;;13.00;84.00;;;;;;5018298;28;20030;-91
2024/02/14 12:51:29;;;;;;;1.40;1.23;;;13.10;82.80;;;;;;5009569;28;20474;-92
2024/02/14 12:53:55;;;;;;;2.05;1.30;;;13.30;83.90;;;;;;5002038;28;20042;-90
2024/02/14 12:56:21;;;;;;;2.55;1.45;;;13.10;83.20;;;;;;5004319;28;20067;-91